| time (UTC) | temp F | wind direction | speed knots | gust knots | rain 1hr in | rain 24hr in | rain mn in | humidity % | barometer mb |
| 20260507140601 | 54 | 311 | 3.5 | 9.6 | 0.00 | 0.05 | 0.01 | 67 | 1008.1 |
| 20260507135604 | 53 | 302 | 1.7 | 6.1 | 0.00 | 0.05 | 0.01 | 71 | 1008.0 |
| 20260507135058 | 53 | 304 | 1.7 | 6.1 | 0.00 | 0.05 | 0.01 | 71 | 1008.0 |
| 20260507134614 | 53 | 303 | 1.7 | 6.1 | 0.00 | 0.05 | 0.01 | 71 | 1007.9 |
| 20260507134058 | 52 | 296 | 1.7 | 4.3 | 0.00 | 0.05 | 0.01 | 72 | 1007.9 |
| 20260507133558 | 52 | 315 | 0.9 | 4.3 | 0.00 | 0.05 | 0.01 | 72 | 1007.9 |
| 20260507133135 | 52 | 0 | 0.0 | 4.3 | 0.00 | 0.05 | 0.01 | 72 | 1008.0 |
| 20260507132559 | 52 | 343 | 1.7 | 7.8 | 0.00 | 0.05 | 0.01 | 72 | 1008.1 |
| 20260507132059 | 52 | 300 | 1.7 | 7.8 | 0.00 | 0.05 | 0.01 | 72 | 1008.1 |
| 20260507131558 | 52 | 285 | 2.6 | 7.8 | 0.00 | 0.05 | 0.01 | 72 | 1008.1 |
| 20260507131101 | 51 | 296 | 0.9 | 7.0 | 0.00 | 0.05 | 0.01 | 72 | 1008.1 |
| 20260507130602 | 51 | 290 | 2.6 | 7.0 | 0.00 | 0.05 | 0.01 | 72 | 1008.2 |
| 20260507130110 | 51 | 307 | 0.9 | 7.0 | 0.00 | 0.05 | 0.01 | 71 | 1008.1 |
| 20260507125559 | 51 | 289 | 2.6 | 7.0 | 0.00 | 0.05 | 0.01 | 71 | 1007.9 |
| 20260507125057 | 50 | 313 | 0.0 | 2.6 | 0.00 | 0.05 | 0.01 | 70 | 1008.2 |
| 20260507124600 | 50 | 324 | 0.9 | 5.2 | 0.00 | 0.05 | 0.01 | 69 | 1008.2 |
| 20260507124101 | 49 | 0 | 1.7 | 5.2 | 0.00 | 0.05 | 0.01 | 70 | 1008.2 |
| 20260507123603 | 49 | 352 | 1.7 | 6.1 | 0.00 | 0.05 | 0.01 | 67 | 1008.2 |
| 20260507123104 | 49 | 304 | 1.7 | 7.0 | 0.00 | 0.05 | 0.01 | 63 | 1008.2 |
| 20260507122559 | 49 | 304 | 2.6 | 7.0 | 0.00 | 0.05 | 0.01 | 55 | 1008.2 |
| 20260507122059 | 49 | 311 | 1.7 | 5.2 | 0.00 | 0.05 | 0.01 | 40 | 1008.1 |
| 20260507121612 | 48 | 0 | 0.0 | 2.6 | 0.00 | 0.05 | 0.01 | 38 | 1008.3 |
| 20260507121100 | 48 | 303 | 0.0 | 2.6 | 0.00 | 0.05 | 0.01 | 34 | 1008.3 |
| 20260507120559 | 48 | 0 | 0.0 | 2.6 | 0.00 | 0.05 | 0.01 | 32 | 1008.3 |
| 20260507120109 | 48 | 0 | 0.0 | 2.6 | 0.00 | 0.05 | 0.01 | 29 | 1008.2 |
| 20260507115558 | 48 | 304 | 0.0 | 2.6 | 0.00 | 0.05 | 0.01 | 27 | 1008.2 |
| 20260507115057 | 48 | 304 | 0.0 | 2.6 | 0.00 | 0.05 | 0.01 | 24 | 1008.0 |
| 20260507114640 | 48 | 304 | 0.0 | 3.5 | 0.00 | 0.05 | 0.01 | 22 | 1008.0 |
| 20260507114102 | 48 | 0 | 0.9 | 3.5 | 0.00 | 0.05 | 0.01 | 20 | 1007.9 |
| 20260507113601 | 48 | 304 | 0.0 | 3.5 | 0.00 | 0.05 | 0.01 | 18 | 1008.1 |
| 20260507113100 | 48 | 304 | 0.9 | 3.5 | 0.00 | 0.05 | 0.01 | 17 | 1008.1 |
| 20260507112601 | 48 | 304 | 0.9 | 3.5 | 0.00 | 0.05 | 0.01 | 17 | 1008.0 |
| 20260507112100 | 48 | 304 | 0.9 | 2.6 | 0.00 | 0.05 | 0.01 | 16 | 1007.9 |
| 20260507111607 | 48 | 0 | 0.0 | 1.7 | 0.00 | 0.05 | 0.01 | 15 | 1007.9 |
| 20260507111102 | 48 | 304 | 0.0 | 1.7 | 0.00 | 0.05 | 0.01 | 15 | 1007.9 |
| 20260507110559 | 48 | 0 | 0.0 | 0.0 | 0.00 | 0.05 | 0.01 | 15 | 1007.9 |
| 20260507110100 | 48 | 0 | 0.0 | 0.0 | 0.00 | 0.05 | 0.01 | 15 | 1007.9 |
| 20260507105558 | 48 | 0 | 0.0 | 0.0 | 0.00 | 0.05 | 0.01 | 15 | 1007.8 |
| 20260507105058 | 48 | 0 | 0.0 | 0.0 | 0.00 | 0.05 | 0.01 | 15 | 1007.6 |
| 20260507104558 | 48 | 0 | 0.0 | 0.0 | 0.00 | 0.05 | 0.01 | 16 | 1007.5 |
| 20260507104058 | 48 | 0 | 0.0 | 0.0 | 0.00 | 0.05 | 0.01 | 16 | 1007.6 |
| 20260507103558 | 48 | 0 | 0.0 | 0.0 | 0.00 | 0.05 | 0.01 | 15 | 1007.7 |
| 20260507103059 | 48 | 0 | 0.0 | 0.0 | 0.00 | 0.05 | 0.01 | 16 | 1007.7 |
| 20260507102558 | 48 | 0 | 0.0 | 0.0 | 0.00 | 0.05 | 0.01 | 16 | 1007.9 |
| 20260507102058 | 48 | 0 | 0.0 | 0.0 | 0.00 | 0.05 | 0.01 | 17 | 1007.9 |
| 20260507101618 | 48 | 0 | 0.0 | 0.0 | 0.00 | 0.05 | 0.01 | 18 | 1007.7 |
| 20260507101100 | 48 | 0 | 0.0 | 0.0 | 0.00 | 0.05 | 0.01 | 19 | 1007.6 |
| 20260507100601 | 48 | 0 | 0.0 | 0.0 | 0.00 | 0.05 | 0.01 | 19 | 1007.5 |
| 20260507095558 | 48 | 0 | 0.0 | 0.0 | 0.01 | 0.05 | 0.01 | 21 | 1007.3 |
| 20260507095102 | 48 | 0 | 0.0 | 0.0 | 0.01 | 0.05 | 0.01 | 22 | 1007.3 |
| 20260507094606 | 48 | 0 | 0.0 | 0.0 | 0.01 | 0.05 | 0.01 | 22 | 1007.3 |
| 20260507094101 | 48 | 0 | 0.0 | 0.0 | 0.01 | 0.05 | 0.01 | 23 | 1007.4 |
| 20260507093559 | 48 | 0 | 0.0 | 0.0 | 0.01 | 0.05 | 0.01 | 24 | 1007.3 |
| 20260507093101 | 48 | 0 | 0.0 | 0.0 | 0.01 | 0.05 | 0.01 | 23 | 1007.2 |
| 20260507092558 | 48 | 0 | 0.0 | 0.0 | 0.01 | 0.05 | 0.01 | 26 | 1007.2 |
| 20260507092102 | 49 | 0 | 0.0 | 0.9 | 0.01 | 0.05 | 0.01 | 27 | 1007.1 |
| 20260507091558 | 49 | 0 | 0.0 | 0.9 | 0.01 | 0.05 | 0.01 | 28 | 1007.1 |
| 20260507091059 | 49 | 0 | 0.0 | 0.9 | 0.01 | 0.05 | 0.01 | 29 | 1007.2 |
| 20260507090558 | 49 | 0 | 0.0 | 0.0 | 0.01 | 0.05 | 0.01 | 29 | 1007.2 |
| 20260507085600 | 49 | 0 | 0.0 | 0.0 | 0.00 | 0.04 | 0.00 | 31 | 1007.4 |
| 20260507085101 | 49 | 0 | 0.0 | 0.0 | 0.00 | 0.04 | 0.00 | 32 | 1007.7 |
| 20260507084603 | 49 | 0 | 0.0 | 0.9 | 0.00 | 0.04 | 0.00 | 33 | 1007.8 |
| 20260507084101 | 49 | 0 | 0.0 | 0.9 | 0.00 | 0.04 | 0.00 | 34 | 1007.7 |
| 20260507083558 | 49 | 0 | 0.0 | 1.7 | 0.00 | 0.04 | 0.00 | 36 | 1007.8 |
| 20260507083101 | 49 | 0 | 0.0 | 2.6 | 0.00 | 0.04 | 0.00 | 39 | 1007.6 |
| 20260507082558 | 49 | 0 | 0.0 | 2.6 | 0.00 | 0.04 | 0.00 | 40 | 1007.5 |
| 20260507082059 | 49 | 0 | 0.0 | 2.6 | 0.00 | 0.04 | 0.00 | 43 | 1007.6 |
| 20260507081600 | 49 | 304 | 0.9 | 2.6 | 0.00 | 0.04 | 0.00 | 46 | 1007.7 |
| 20260507081058 | 50 | 0 | 0.9 | 2.6 | 0.00 | 0.04 | 0.00 | 49 | 1007.6 |
| 20260507080601 | 50 | 0 | 0.9 | 2.6 | 0.00 | 0.04 | 0.00 | 50 | 1007.4 |
| 20260507080119 | 50 | 0 | 0.0 | 0.0 | 0.00 | 0.04 | 0.00 | 51 | 1007.1 |
| 20260507075559 | 50 | 0 | 0.0 | 0.9 | 0.00 | 0.04 | 0.00 | 55 | 1007.3 |
| 20260507075101 | 50 | 0 | 0.0 | 0.9 | 0.00 | 0.04 | 0.00 | 57 | 1007.5 |
| 20260507074600 | 50 | 0 | 0.0 | 0.9 | 0.00 | 0.04 | 0.00 | 60 | 1007.7 |
| 20260507074057 | 51 | 0 | 0.0 | 0.9 | 0.00 | 0.04 | 0.00 | 61 | 1007.3 |
| 20260507073600 | 51 | 0 | 0.0 | 2.6 | 0.00 | 0.04 | 0.00 | 64 | 1007.6 |
| 20260507073108 | 51 | 0 | 0.9 | 2.6 | 0.00 | 0.04 | 0.00 | 66 | 1007.5 |
| 20260507072559 | 51 | 0 | 0.0 | 4.3 | 0.00 | 0.04 | 0.00 | 68 | 1007.2 |
| 20260507072102 | 51 | 0 | 0.0 | 4.3 | 0.00 | 0.04 | 0.00 | 69 | 1007.3 |
| 20260507071559 | 51 | 0 | 1.7 | 4.3 | 0.00 | 0.04 | 0.00 | 71 | 1007.3 |
| 20260507071058 | 51 | 0 | 0.0 | 2.6 | 0.00 | 0.04 | 0.00 | 71 | 1007.1 |
| 20260507070558 | 51 | 0 | 0.9 | 2.6 | 0.00 | 0.04 | 0.00 | 71 | 1006.9 |
| 20260507070058 | 51 | 332 | 0.0 | 1.7 | 0.00 | 0.04 | 0.00 | 71 | 1006.6 |
| 20260507065558 | 52 | 332 | 0.0 | 1.7 | 0.00 | 0.04 | 0.00 | 70 | 1006.5 |
| 20260507065059 | 52 | 0 | 0.0 | 1.7 | 0.00 | 0.04 | 0.00 | 69 | 1006.5 |
| 20260507064603 | 52 | 332 | 0.0 | 2.6 | 0.00 | 0.04 | 0.00 | 68 | 1006.5 |
| 20260507064059 | 52 | 0 | 0.0 | 2.6 | 0.00 | 0.04 | 0.00 | 66 | 1006.6 |
| 20260507063558 | 52 | 0 | 0.0 | 2.6 | 0.00 | 0.04 | 0.00 | 66 | 1006.6 |
| 20260507063106 | 52 | 0 | 0.0 | 1.7 | 0.00 | 0.04 | 0.00 | 66 | 1006.5 |
| 20260507062558 | 52 | 0 | 0.0 | 3.5 | 0.00 | 0.04 | 0.00 | 66 | 1006.7 |
| 20260507062101 | 52 | 0 | 0.0 | 3.5 | 0.00 | 0.04 | 0.00 | 67 | 1006.8 |
| 20260507061559 | 53 | 0 | 0.0 | 2.6 | 0.00 | 0.04 | 0.00 | 66 | 1007.0 |
| 20260507061059 | 53 | 0 | 0.0 | 1.7 | 0.00 | 0.04 | 0.00 | 67 | 1006.8 |
| 20260507060558 | 53 | 0 | 0.0 | 3.5 | 0.00 | 0.04 | 0.00 | 68 | 1006.8 |
| 20260507060100 | 53 | 0 | 0.0 | 3.5 | 0.00 | 0.04 | 0.00 | 67 | 1006.6 |
| 20260507055601 | 53 | 299 | 0.9 | 3.5 | 0.00 | 0.04 | 0.00 | 65 | 1006.5 |
| 20260507055058 | 53 | 299 | 0.0 | 4.3 | 0.00 | 0.04 | 0.00 | 64 | 1006.5 |
| 20260507054600 | 53 | 299 | 0.9 | 4.3 | 0.00 | 0.04 | 0.00 | 63 | 1006.6 |
| 20260507054058 | 54 | 0 | 0.9 | 6.1 | 0.00 | 0.04 | 0.00 | 64 | 1006.9 |
| 20260507053558 | 54 | 0 | 1.7 | 6.1 | 0.00 | 0.04 | 0.00 | 64 | 1006.9 |
| 20260507053116 | 54 | 310 | 0.9 | 4.3 | 0.00 | 0.04 | 0.00 | 62 | 1007.0 |
| 20260507052558 | 54 | 301 | 0.9 | 4.3 | 0.00 | 0.04 | 0.00 | 58 | 1007.2 |
| 20260507052101 | 55 | 301 | 2.6 | 4.3 | 0.00 | 0.04 | 0.00 | 52 | 1007.2 |
| 20260507051605 | 55 | 304 | 1.7 | 7.0 | 0.00 | 0.04 | 0.00 | 45 | 1007.3 |
| 20260507051101 | 55 | 306 | 1.7 | 7.0 | 0.00 | 0.04 | 0.00 | 41 | 1007.3 |
| 20260507050558 | 56 | 310 | 0.9 | 7.0 | 0.00 | 0.04 | 0.00 | 40 | 1006.8 |
| 20260507050058 | 56 | 302 | 0.0 | 2.6 | 0.00 | 0.04 | 0.00 | 41 | 1007.0 |
| 20260507045559 | 56 | 302 | 0.9 | 2.6 | 0.00 | 0.04 | 0.00 | 42 | 1006.8 |
| 20260507045059 | 56 | 302 | 0.0 | 3.5 | 0.00 | 0.04 | 0.00 | 42 | 1006.7 |
| 20260507044559 | 56 | 302 | 0.0 | 3.5 | 0.00 | 0.04 | 0.00 | 42 | 1006.7 |
| 20260507044058 | 56 | 300 | 0.9 | 3.5 | 0.00 | 0.04 | 0.00 | 42 | 1007.0 |
| 20260507043558 | 56 | 299 | 0.9 | 2.6 | 0.00 | 0.04 | 0.00 | 42 | 1006.9 |
| 20260507043058 | 56 | 0 | 0.0 | 2.6 | 0.00 | 0.04 | 0.00 | 41 | 1007.0 |
| 20260507042559 | 56 | 299 | 0.0 | 2.6 | 0.00 | 0.04 | 0.00 | 40 | 1007.0 |
| 20260507042101 | 56 | 298 | 0.9 | 4.3 | 0.00 | 0.04 | 0.00 | 40 | 1006.9 |
| 20260507041601 | 57 | 298 | 0.9 | 6.1 | 0.00 | 0.04 | 0.00 | 39 | 1006.8 |
| 20260507041058 | 57 | 299 | 2.6 | 6.1 | 0.00 | 0.04 | 0.00 | 38 | 1006.7 |
| 20260507040601 | 57 | 296 | 1.7 | 7.8 | 0.00 | 0.04 | 0.00 | 34 | 1006.7 |
| 20260507035559 | 57 | 304 | 2.6 | 6.1 | 0.00 | 0.04 | 0.04 | 19 | 1006.9 |
| 20260507035058 | 57 | 293 | 0.9 | 7.8 | 0.00 | 0.04 | 0.04 | 9 | 1006.9 |
| 20260507034601 | 57 | 293 | 0.9 | 7.8 | 0.00 | 0.04 | 0.04 | 3 | 1007.0 |
| 20260507034058 | 58 | 295 | 3.5 | 7.8 | 0.00 | 0.04 | 0.04 | 100 | 1007.1 |
| 20260507033559 | 58 | 301 | 2.6 | 6.1 | 0.00 | 0.04 | 0.04 | 100 | 1006.9 |
| 20260507033110 | 58 | 303 | 1.7 | 4.3 | 0.00 | 0.04 | 0.04 | 100 | 1006.9 |
| 20260507032601 | 58 | 0 | 0.0 | 0.9 | 0.00 | 0.04 | 0.04 | 100 | 1006.6 |
| 20260507032058 | 58 | 0 | 0.0 | 0.9 | 0.00 | 0.04 | 0.04 | 100 | 1006.5 |
| 20260507031601 | 58 | 0 | 0.0 | 0.9 | 0.00 | 0.04 | 0.04 | 100 | 1006.4 |
| 20260507031103 | 58 | 0 | 0.0 | 1.7 | 0.00 | 0.04 | 0.04 | 100 | 1006.4 |
| 20260507030601 | 58 | 0 | 0.0 | 1.7 | 0.00 | 0.04 | 0.04 | 100 | 1006.4 |
| 20260507030101 | 58 | 0 | 0.0 | 1.7 | 0.00 | 0.04 | 0.04 | 100 | 1006.2 |
| 20260507025558 | 58 | 0 | 0.0 | 4.3 | 0.00 | 0.04 | 0.04 | 100 | 1006.2 |
| 20260507025058 | 58 | 304 | 0.0 | 4.3 | 0.00 | 0.04 | 0.04 | 100 | 1006.2 |
| 20260507024607 | 58 | 0 | 0.0 | 1.7 | 0.00 | 0.04 | 0.04 | 100 | 1006.2 |
| 20260507024100 | 58 | 0 | 0.0 | 1.7 | 0.00 | 0.04 | 0.04 | 100 | 1006.2 |
| 20260507023601 | 58 | 0 | 0.0 | 1.7 | 0.00 | 0.04 | 0.04 | 100 | 1006.2 |
| 20260507023057 | 58 | 294 | 0.0 | 1.7 | 0.00 | 0.04 | 0.04 | 100 | 1006.1 |
| 20260507022600 | 58 | 0 | 0.0 | 1.7 | 0.00 | 0.04 | 0.04 | 100 | 1005.9 |
| 20260507022058 | 58 | 0 | 0.0 | 1.7 | 0.00 | 0.04 | 0.04 | 100 | 1005.9 |
| 20260507021611 | 58 | 0 | 0.0 | 1.7 | 0.00 | 0.04 | 0.04 | 100 | 1006.0 |
| 20260507021102 | 58 | 0 | 0.0 | 2.6 | 0.00 | 0.04 | 0.04 | 100 | 1006.0 |
| 20260507020559 | 58 | 0 | 0.0 | 2.6 | 0.00 | 0.04 | 0.04 | 100 | 1006.1 |
| 20260507020115 | 58 | 294 | 0.0 | 2.6 | 0.00 | 0.04 | 0.04 | 100 | 1006.1 |
| 20260507015602 | 58 | 0 | 0.0 | 2.6 | 0.00 | 0.04 | 0.04 | 100 | 1006.0 |
| 20260507015059 | 58 | 0 | 0.0 | 3.5 | 0.00 | 0.04 | 0.04 | 100 | 1006.0 |
| 20260507014605 | 58 | 0 | 0.0 | 3.5 | 0.00 | 0.04 | 0.04 | 100 | 1006.2 |
| 20260507014058 | 58 | 294 | 0.0 | 2.6 | 0.00 | 0.04 | 0.04 | 100 | 1006.2 |
| 20260507013602 | 58 | 0 | 0.0 | 2.6 | 0.00 | 0.04 | 0.04 | 100 | 1006.2 |
| 20260507013100 | 58 | 0 | 0.0 | 2.6 | 0.00 | 0.04 | 0.04 | 100 | 1006.0 |
| 20260507012558 | 58 | 0 | 0.0 | 1.7 | 0.00 | 0.04 | 0.04 | 100 | 1005.9 |
| 20260507012059 | 58 | 0 | 0.0 | 2.6 | 0.00 | 0.04 | 0.04 | 100 | 1005.9 |
| 20260507011601 | 58 | 0 | 0.0 | 2.6 | 0.00 | 0.04 | 0.04 | 100 | 1006.1 |
| 20260507011059 | 58 | 295 | 0.0 | 2.6 | 0.00 | 0.04 | 0.04 | 100 | 1006.2 |
| 20260507010559 | 58 | 0 | 0.0 | 2.6 | 0.00 | 0.04 | 0.04 | 100 | 1006.2 |
| 20260507010104 | 58 | 295 | 0.0 | 2.6 | 0.00 | 0.04 | 0.04 | 100 | 1006.3 |
| 20260507005559 | 58 | 295 | 0.0 | 4.3 | 0.00 | 0.04 | 0.04 | 100 | 1006.2 |
| 20260507005058 | 58 | 0 | 0.0 | 4.3 | 0.00 | 0.04 | 0.04 | 100 | 1006.4 |
| 20260507004605 | 58 | 0 | 0.0 | 3.5 | 0.00 | 0.04 | 0.04 | 100 | 1006.2 |
| 20260507004058 | 58 | 276 | 0.0 | 3.5 | 0.00 | 0.04 | 0.04 | 100 | 1006.4 |
| 20260507003600 | 58 | 0 | 0.0 | 3.5 | 0.00 | 0.04 | 0.04 | 100 | 1006.3 |
| 20260507003100 | 58 | 0 | 0.0 | 1.7 | 0.00 | 0.04 | 0.04 | 1 | 1006.4 |
| 20260507002559 | 58 | 298 | 0.0 | 2.6 | 0.00 | 0.04 | 0.04 | 1 | 1006.2 |
| 20260507002059 | 58 | 0 | 0.0 | 2.6 | 0.00 | 0.04 | 0.04 | 1 | 1006.3 |
| 20260507001601 | 58 | 0 | 0.0 | 2.6 | 0.00 | 0.04 | 0.04 | 2 | 1006.2 |
| 20260507001100 | 58 | 0 | 0.0 | 3.5 | 0.00 | 0.04 | 0.04 | 2 | 1006.2 |
| 20260507000558 | 58 | 0 | 0.0 | 3.5 | 0.00 | 0.04 | 0.04 | 2 | 1006.0 |
| 20260507000101 | 58 | 276 | 0.0 | 3.5 | 0.00 | 0.04 | 0.04 | 3 | 1006.0 |
| 20260506235602 | 58 | 278 | 0.0 | 1.7 | 0.01 | 0.04 | 0.04 | 3 | 1005.9 |
| 20260506235058 | 58 | 0 | 0.0 | 0.9 | 0.01 | 0.04 | 0.04 | 3 | 1005.7 |
| 20260506234557 | 58 | 0 | 0.0 | 0.9 | 0.02 | 0.04 | 0.04 | 3 | 1005.8 |
| 20260506234058 | 58 | 0 | 0.0 | 0.9 | 0.02 | 0.04 | 0.04 | 3 | 1005.8 |
| 20260506233559 | 58 | 0 | 0.0 | 2.6 | 0.02 | 0.04 | 0.04 | 4 | 1005.8 |
| 20260506233111 | 58 | 0 | 0.0 | 3.5 | 0.02 | 0.04 | 0.04 | 4 | 1005.7 |
| 20260506232558 | 58 | 0 | 0.0 | 3.5 | 0.02 | 0.04 | 0.04 | 4 | 1005.8 |
| 20260506232058 | 58 | 0 | 0.0 | 3.5 | 0.02 | 0.04 | 0.04 | 4 | 1005.7 |
| 20260506231603 | 58 | 0 | 0.0 | 2.6 | 0.02 | 0.04 | 0.04 | 4 | 1005.8 |
| 20260506231059 | 58 | 0 | 0.0 | 1.7 | 0.02 | 0.04 | 0.04 | 5 | 1005.7 |
| 20260506230558 | 58 | 278 | 0.0 | 1.7 | 0.02 | 0.04 | 0.04 | 5 | 1005.7 |
| 20260506230100 | 58 | 0 | 0.0 | 1.7 | 0.02 | 0.04 | 0.04 | 6 | 1005.7 |
| 20260506225558 | 58 | 0 | 0.0 | 1.7 | 0.01 | 0.03 | 0.03 | 6 | 1005.8 |
| 20260506225059 | 58 | 278 | 0.0 | 2.6 | 0.01 | 0.03 | 0.03 | 6 | 1005.8 |
| 20260506224601 | 58 | 0 | 0.0 | 2.6 | 0.00 | 0.02 | 0.02 | 7 | 1005.9 |
| 20260506224057 | 58 | 0 | 0.0 | 1.7 | 0.00 | 0.02 | 0.02 | 7 | 1005.8 |
| 20260506223558 | 59 | 0 | 0.0 | 1.7 | 0.00 | 0.02 | 0.02 | 7 | 1005.9 |
| 20260506223058 | 59 | 0 | 0.0 | 1.7 | 0.00 | 0.02 | 0.02 | 7 | 1006.0 |
| 20260506222558 | 59 | 0 | 0.0 | 1.7 | 0.00 | 0.02 | 0.02 | 8 | 1006.0 |
| 20260506222058 | 59 | 0 | 0.0 | 1.7 | 0.00 | 0.02 | 0.02 | 9 | 1005.9 |
| 20260506221612 | 59 | 0 | 0.0 | 2.6 | 0.00 | 0.02 | 0.02 | 9 | 1006.0 |
| 20260506221059 | 59 | 0 | 0.0 | 3.5 | 0.00 | 0.02 | 0.02 | 9 | 1005.9 |
| 20260506220559 | 59 | 0 | 0.0 | 3.5 | 0.00 | 0.02 | 0.02 | 10 | 1006.0 |
| 20260506220059 | 59 | 0 | 0.0 | 3.5 | 0.00 | 0.02 | 0.02 | 10 | 1006.1 |
| 20260506215559 | 59 | 0 | 0.0 | 2.6 | 0.00 | 0.02 | 0.02 | 11 | 1006.2 |
| 20260506215059 | 59 | 0 | 0.0 | 2.6 | 0.00 | 0.02 | 0.02 | 11 | 1006.1 |
| 20260506214612 | 59 | 268 | 0.0 | 2.6 | 0.00 | 0.02 | 0.02 | 11 | 1006.1 |
| 20260506214059 | 59 | 0 | 0.0 | 0.9 | 0.00 | 0.02 | 0.02 | 12 | 1006.2 |
| 20260506213558 | 59 | 0 | 0.0 | 0.9 | 0.00 | 0.02 | 0.02 | 12 | 1006.1 |
| 20260506213129 | 59 | 0 | 0.0 | 5.2 | 0.00 | 0.02 | 0.02 | 13 | 1006.4 |
| 20260506212600 | 59 | 0 | 0.0 | 5.2 | 0.00 | 0.02 | 0.02 | 14 | 1006.4 |
| 20260506212058 | 59 | 115 | 0.0 | 5.2 | 0.00 | 0.02 | 0.02 | 15 | 1006.4 |
| 20260506211600 | 59 | 0 | 0.0 | 5.2 | 0.00 | 0.02 | 0.02 | 16 | 1006.4 |
| 20260506211059 | 59 | 0 | 0.0 | 5.2 | 0.00 | 0.02 | 0.02 | 16 | 1006.6 |
| 20260506210600 | 59 | 0 | 0.0 | 1.7 | 0.00 | 0.02 | 0.02 | 17 | 1006.6 |
| 20260506210104 | 59 | 40 | 0.0 | 1.7 | 0.00 | 0.02 | 0.02 | 17 | 1006.4 |
| 20260506205558 | 59 | 0 | 0.0 | 2.6 | 0.00 | 0.02 | 0.02 | 18 | 1006.6 |
| 20260506205058 | 59 | 0 | 0.0 | 2.6 | 0.00 | 0.02 | 0.02 | 19 | 1006.7 |
| 20260506204558 | 59 | 210 | 0.0 | 6.1 | 0.00 | 0.02 | 0.02 | 20 | 1006.6 |
| 20260506204058 | 59 | 163 | 0.0 | 6.1 | 0.00 | 0.02 | 0.02 | 21 | 1006.7 |
| 20260506203559 | 59 | 107 | 0.9 | 3.5 | 0.00 | 0.02 | 0.02 | 22 | 1006.8 |
| 20260506203101 | 59 | 0 | 0.0 | 3.5 | 0.00 | 0.02 | 0.02 | 23 | 1006.8 |
| 20260506202558 | 59 | 0 | 0.0 | 3.5 | 0.00 | 0.02 | 0.02 | 24 | 1006.9 |
| 20260506202059 | 59 | 0 | 0.9 | 3.5 | 0.00 | 0.02 | 0.02 | 24 | 1006.8 |
| 20260506201558 | 59 | 0 | 0.0 | 3.5 | 0.01 | 0.02 | 0.02 | 25 | 1006.8 |
| 20260506201059 | 59 | 0 | 0.0 | 3.5 | 0.02 | 0.02 | 0.02 | 25 | 1007.1 |
| 20260506200558 | 59 | 0 | 0.0 | 4.3 | 0.02 | 0.02 | 0.02 | 26 | 1007.0 |
| 20260506195559 | 60 | 298 | 0.0 | 2.6 | 0.02 | 0.02 | 0.02 | 27 | 1007.1 |
| 20260506195102 | 60 | 269 | 0.0 | 3.5 | 0.02 | 0.02 | 0.02 | 30 | 1006.9 |
| 20260506194602 | 60 | 0 | 0.0 | 3.5 | 0.02 | 0.02 | 0.02 | 31 | 1007.0 |
| 20260506194059 | 60 | 288 | 0.0 | 2.6 | 0.02 | 0.02 | 0.02 | 32 | 1007.1 |
| 20260506193600 | 60 | 152 | 0.0 | 2.6 | 0.02 | 0.02 | 0.02 | 33 | 1007.1 |
| 20260506193100 | 61 | 0 | 0.0 | 7.8 | 0.02 | 0.02 | 0.02 | 35 | 1007.1 |
| 20260506192558 | 61 | 232 | 0.9 | 7.8 | 0.02 | 0.02 | 0.02 | 40 | 1007.1 |
| 20260506192100 | 61 | 185 | 0.0 | 2.6 | 0.02 | 0.02 | 0.02 | 40 | 1007.0 |
| 20260506191600 | 61 | 0 | 0.0 | 3.5 | 0.01 | 0.01 | 0.01 | 44 | 1007.2 |
| 20260506191059 | 61 | 0 | 0.0 | 3.5 | 0.00 | 0.00 | 0.00 | 49 | 1007.2 |
| 20260506190559 | 62 | 0 | 0.0 | 2.6 | 0.00 | 0.00 | 0.00 | 49 | 1007.1 |
| 20260506190106 | 62 | 0 | 0.0 | 2.6 | 0.00 | 0.00 | 0.00 | 53 | 1007.2 |
| 20260506185558 | 62 | 0 | 0.0 | 2.6 | 0.00 | 0.00 | 0.00 | 57 | 1007.1 |
| 20260506185100 | 63 | 0 | 0.0 | 2.6 | 0.00 | 0.00 | 0.00 | 59 | 1007.1 |
| 20260506184609 | 63 | 0 | 0.0 | 2.6 | 0.00 | 0.00 | 0.00 | 61 | 1007.1 |
| 20260506184059 | 64 | 0 | 0.0 | 2.6 | 0.00 | 0.00 | 0.00 | 65 | 1007.3 |
| 20260506183559 | 64 | 279 | 0.0 | 3.5 | 0.00 | 0.00 | 0.00 | 67 | 1007.4 |
| 20260506183105 | 65 | 279 | 0.0 | 3.5 | 0.00 | 0.00 | 0.00 | 68 | 1007.4 |
| 20260506182559 | 65 | 0 | 0.0 | 3.5 | 0.00 | 0.00 | 0.00 | 68 | 1007.4 |
| 20260506182058 | 66 | 319 | 0.0 | 3.5 | 0.00 | 0.00 | 0.00 | 69 | 1007.5 |
| 20260506181624 | 66 | 285 | 0.0 | 4.3 | 0.00 | 0.00 | 0.00 | 69 | 1007.6 |
| 20260506181059 | 67 | 242 | 0.0 | 5.2 | 0.00 | 0.00 | 0.00 | 68 | 1007.6 |
| 20260506180601 | 67 | 311 | 0.9 | 5.2 | 0.00 | 0.00 | 0.00 | 68 | 1007.5 |
| 20260506175559 | 68 | 267 | 0.0 | 6.1 | 0.00 | 0.00 | 0.00 | 66 | 1007.4 |
| 20260506175058 | 68 | 0 | 1.7 | 8.7 | 0.00 | 0.00 | 0.00 | 65 | 1007.7 |
| 20260506174558 | 69 | 336 | 3.5 | 8.7 | 0.00 | 0.00 | 0.00 | 64 | 1007.7 |
| 20260506174058 | 69 | 267 | 0.0 | 6.1 | 0.00 | 0.00 | 0.00 | 63 | 1007.9 |
| 20260506173558 | 70 | 0 | 1.7 | 7.0 | 0.00 | 0.00 | 0.00 | 61 | 1007.5 |
| 20260506173113 | 70 | 257 | 0.9 | 7.0 | 0.00 | 0.00 | 0.00 | 61 | 1007.6 |
| 20260506172601 | 70 | 121 | 0.9 | 7.0 | 0.00 | 0.00 | 0.00 | 61 | 1007.7 |
| 20260506172059 | 70 | 257 | 0.9 | 7.0 | 0.00 | 0.00 | 0.00 | 59 | 1007.7 |
| 20260506171606 | 71 | 290 | 2.6 | 9.6 | 0.00 | 0.00 | 0.00 | 59 | 1007.7 |
| 20260506171101 | 71 | 302 | 1.7 | 9.6 | 0.00 | 0.00 | 0.00 | 59 | 1007.6 |
| 20260506170601 | 71 | 291 | 1.7 | 9.6 | 0.00 | 0.00 | 0.00 | 59 | 1007.5 |
| 20260506170058 | 71 | 296 | 0.9 | 8.7 | 0.00 | 0.00 | 0.00 | 59 | 1007.5 |
| 20260506165600 | 71 | 306 | 0.9 | 8.7 | 0.00 | 0.00 | 0.00 | 59 | 1007.5 |
| 20260506165059 | 71 | 262 | 0.9 | 8.7 | 0.00 | 0.00 | 0.00 | 59 | 1007.7 |
| 20260506164614 | 71 | 302 | 0.0 | 5.2 | 0.00 | 0.00 | 0.00 | 60 | 1007.7 |
| 20260506164058 | 71 | 284 | 0.0 | 5.2 | 0.00 | 0.00 | 0.00 | 61 | 1007.8 |
| 20260506163558 | 70 | 115 | 0.9 | 5.2 | 0.00 | 0.00 | 0.00 | 60 | 1007.8 |
| 20260506163105 | 70 | 296 | 0.0 | 6.1 | 0.00 | 0.00 | 0.00 | 60 | 1007.9 |
| 20260506162558 | 70 | 24 | 0.9 | 6.1 | 0.00 | 0.00 | 0.00 | 59 | 1008.2 |
| 20260506162101 | 70 | 300 | 0.9 | 6.1 | 0.00 | 0.00 | 0.00 | 60 | 1008.2 |
| 20260506161600 | 70 | 0 | 0.9 | 6.1 | 0.00 | 0.00 | 0.00 | 60 | 1008.3 |
| 20260506161100 | 70 | 28 | 0.0 | 5.2 | 0.00 | 0.00 | 0.00 | 61 | 1008.1 |
| 20260506160600 | 70 | 0 | 0.0 | 5.2 | 0.00 | 0.00 | 0.00 | 61 | 1008.3 |
| 20260506160109 | 70 | 286 | 1.7 | 5.2 | 0.00 | 0.00 | 0.00 | 61 | 1008.3 |
| 20260506155602 | 70 | 0 | 0.9 | 6.1 | 0.00 | 0.00 | 0.00 | 62 | 1008.5 |
| 20260506155059 | 69 | 0 | 0.9 | 6.1 | 0.00 | 0.00 | 0.00 | 62 | 1008.4 |
| 20260506154603 | 69 | 0 | 0.9 | 6.1 | 0.00 | 0.00 | 0.00 | 63 | 1008.6 |
| 20260506154059 | 69 | 296 | 0.9 | 5.2 | 0.00 | 0.00 | 0.00 | 63 | 1008.6 |
| 20260506153559 | 69 | 0 | 0.9 | 5.2 | 0.00 | 0.00 | 0.00 | 63 | 1008.7 |
| 20260506153113 | 69 | 0 | 0.9 | 8.7 | 0.00 | 0.00 | 0.00 | 63 | 1008.7 |
| 20260506152559 | 69 | 273 | 1.7 | 8.7 | 0.00 | 0.00 | 0.00 | 63 | 1008.9 |
| 20260506152058 | 69 | 0 | 0.0 | 4.3 | 0.00 | 0.00 | 0.00 | 64 | 1008.9 |
| 20260506151558 | 69 | 0 | 0.9 | 5.2 | 0.00 | 0.00 | 0.00 | 64 | 1008.9 |
| 20260506151102 | 69 | 292 | 1.7 | 6.1 | 0.00 | 0.00 | 0.00 | 64 | 1009.0 |
| 20260506150558 | 69 | 281 | 1.7 | 6.1 | 0.00 | 0.00 | 0.00 | 64 | 1009.1 |
| 20260506150104 | 69 | 294 | 1.7 | 5.2 | 0.00 | 0.00 | 0.00 | 65 | 1009.1 |
| 20260506145559 | 68 | 0 | 1.7 | 5.2 | 0.00 | 0.00 | 0.00 | 65 | 1009.1 |
| 20260506145100 | 68 | 0 | 0.9 | 5.2 | 0.00 | 0.00 | 0.00 | 65 | 1009.1 |
| 20260506144610 | 68 | 255 | 0.0 | 4.3 | 0.00 | 0.00 | 0.00 | 66 | 1009.0 |
| 20260506144059 | 68 | 0 | 0.0 | 6.1 | 0.00 | 0.00 | 0.00 | 66 | 1009.0 |
| 20260506143559 | 68 | 0 | 0.9 | 6.1 | 0.00 | 0.00 | 0.00 | 66 | 1009.3 |
| 20260506143058 | 67 | 0 | 0.9 | 5.2 | 0.00 | 0.00 | 0.00 | 67 | 1009.2 |
| 20260506142559 | 67 | 0 | 0.9 | 3.5 | 0.00 | 0.00 | 0.00 | 67 | 1009.1 |
| 20260506142100 | 67 | 0 | 0.0 | 6.1 | 0.00 | 0.00 | 0.00 | 68 | 1009.2 |
| 20260506141559 | 67 | 281 | 1.7 | 6.1 | 0.00 | 0.00 | 0.00 | 68 | 1009.1 |
| 20260506141059 | 67 | 298 | 0.9 | 4.3 | 0.00 | 0.00 | 0.00 | 68 | 1009.1 |